Time;durP1;ratioP1;P1;durP2;ratioP2;P2;SDS_P1;SDS_P2;PMS_P1;PMS_P2;Temp;Humidity;BMP_temperature;BMP_pressure;BME280_temperature;BME280_humidity;BME280_pressure;Samples;Min_cycle;Max_cycle;Signal;HPM_P1;HPM_P2
2021/03/04 00:00:30;;;;;;;3.37;3.00;;;4.20;99.90;;;;;;4984844;28;20330;-94
2021/03/04 00:02:56;;;;;;;6.90;2.53;;;4.10;99.90;;;;;;4971763;28;20187;-95
2021/03/04 00:05:22;;;;;;;2.93;2.63;;;4.20;99.90;;;;;;4995934;28;20225;-94
2021/03/04 00:07:48;;;;;;;4.93;4.50;;;4.10;99.90;;;;;;5017795;28;20293;-95
2021/03/04 00:10:17;;;;;;;7.07;4.80;;;4.10;99.90;;;;;;4995546;28;20235;-94
2021/03/04 00:12:46;;;;;;;5.30;4.37;;;4.20;99.90;;;;;;4997745;28;20222;-94
2021/03/04 00:15:13;;;;;;;6.07;3.17;;;4.20;99.90;;;;;;5005934;28;20263;-95
2021/03/04 00:17:39;;;;;;;7.33;4.47;;;4.20;99.90;;;;;;5010772;28;20210;-95
2021/03/04 00:20:10;;;;;;;9.10;7.10;;;4.20;99.90;;;;;;4973505;28;20725;-93
2021/03/04 00:22:36;;;;;;;6.37;4.63;;;4.30;99.90;;;;;;4986789;28;20269;-94
2021/03/04 00:25:04;;;;;;;12.27;7.03;;;4.30;99.90;;;;;;4988417;28;20326;-95
2021/03/04 00:27:30;;;;;;;8.57;5.17;;;4.30;99.90;;;;;;4975398;28;20744;-94
2021/03/04 00:29:56;;;;;;;9.57;4.70;;;4.30;99.90;;;;;;4987365;28;20215;-93
2021/03/04 00:32:22;;;;;;;5.80;5.20;;;4.30;99.90;;;;;;5005697;28;20237;-93
2021/03/04 00:34:48;;;;;;;6.37;2.93;;;4.30;99.90;;;;;;5010797;28;20226;-94
2021/03/04 00:37:14;;;;;;;8.63;5.20;;;4.30;99.90;;;;;;5006268;28;20226;-93
2021/03/04 00:39:40;;;;;;;7.87;4.27;;;4.30;99.90;;;;;;5008293;28;20221;-95
2021/03/04 00:42:06;;;;;;;9.53;6.87;;;4.30;99.90;;;;;;5007686;28;20182;-94
2021/03/04 00:44:32;;;;;;;8.77;3.30;;;4.40;99.90;;;;;;5011223;28;20178;-91
2021/03/04 00:46:58;;;;;;;4.27;3.93;;;4.30;99.90;;;;;;5002226;28;20575;-94
2021/03/04 00:49:24;;;;;;;5.87;3.97;;;4.40;99.90;;;;;;5007931;28;21112;-94
2021/03/04 00:51:50;;;;;;;11.77;4.80;;;4.40;99.90;;;;;;5006993;28;20223;-94
2021/03/04 00:54:16;;;;;;;3.47;3.20;;;4.40;99.90;;;;;;5007133;28;20193;-94
2021/03/04 00:56:41;;;;;;;5.23;3.97;;;4.40;99.90;;;;;;5022088;28;20586;-93
2021/03/04 00:59:07;;;;;;;11.77;3.63;;;4.30;99.90;;;;;;5010409;28;20366;-95
2021/03/04 01:01:33;;;;;;;7.77;6.07;;;4.40;99.90;;;;;;5006041;28;21279;-93
2021/03/04 01:03:59;;;;;;;6.10;3.97;;;4.40;99.90;;;;;;4991080;28;20721;-93
2021/03/04 01:06:25;;;;;;;4.80;1.87;;;4.30;99.90;;;;;;5011006;28;20229;-94
2021/03/04 01:08:51;;;;;;;6.83;3.67;;;4.30;99.90;;;;;;5028465;28;20191;-91
2021/03/04 01:11:17;;;;;;;7.07;5.00;;;4.30;99.90;;;;;;5010832;28;20716;-92
2021/03/04 01:13:43;;;;;;;12.13;4.30;;;4.20;99.90;;;;;;5006245;28;20749;-92
2021/03/04 01:16:10;;;;;;;9.57;5.77;;;4.20;99.90;;;;;;5017616;28;20667;-91
2021/03/04 01:18:36;;;;;;;8.03;4.80;;;4.30;99.90;;;;;;5010963;28;20322;-91
2021/03/04 01:21:03;;;;;;;6.00;4.67;;;4.30;99.90;;;;;;4993829;28;20237;-91
2021/03/04 01:23:29;;;;;;;5.27;3.57;;;4.30;99.90;;;;;;4998892;28;20238;-92
2021/03/04 01:25:55;;;;;;;11.27;3.70;;;4.30;99.90;;;;;;5011323;28;20680;-93
2021/03/04 01:28:20;;;;;;;4.10;3.40;;;4.20;99.90;;;;;;5003154;28;20217;-92
2021/03/04 01:30:46;;;;;;;9.27;5.53;;;4.20;99.90;;;;;;5000427;28;20231;-91
2021/03/04 01:33:12;;;;;;;7.67;3.07;;;4.20;99.90;;;;;;5021965;28;20284;-92
2021/03/04 01:35:38;;;;;;;14.27;6.17;;;4.10;99.90;;;;;;5006877;28;20239;-91
2021/03/04 01:38:04;;;;;;;5.10;3.77;;;4.20;99.90;;;;;;5003265;28;20339;-91
2021/03/04 01:40:29;;;;;;;6.40;4.60;;;4.20;99.90;;;;;;4987472;28;20254;-90
2021/03/04 01:42:55;;;;;;;8.93;4.23;;;4.20;99.90;;;;;;4974385;28;20227;-92
2021/03/04 01:45:22;;;;;;;8.27;4.10;;;4.20;99.90;;;;;;4986511;28;20190;-92
2021/03/04 01:47:53;;;;;;;6.33;4.33;;;4.20;99.90;;;;;;4987582;28;20659;-92
2021/03/04 01:50:21;;;;;;;2.93;2.23;;;4.20;99.90;;;;;;4990248;28;20626;-91
2021/03/04 01:52:47;;;;;;;3.63;2.87;;;4.20;99.90;;;;;;4964504;28;20211;-91
2021/03/04 01:55:16;;;;;;;4.30;3.70;;;4.10;99.90;;;;;;4966762;28;20682;-91
2021/03/04 01:57:44;;;;;;;2.00;1.13;;;4.00;99.90;;;;;;4984942;28;20215;-91
2021/03/04 02:00:11;;;;;;;1.57;1.47;;;4.00;99.90;;;;;;4988156;28;20196;-92
2021/03/04 02:02:37;;;;;;;4.73;4.30;;;4.00;99.90;;;;;;5002155;28;20274;-91
2021/03/04 02:05:07;;;;;;;5.13;4.30;;;4.10;99.90;;;;;;5002304;28;20771;-92
2021/03/04 02:07:57;;;;;;;3.07;2.80;;;4.00;99.90;;;;;;4984953;28;20219;-92
2021/03/04 02:10:48;;;;;;;3.80;3.47;;;4.10;99.90;;;;;;4991492;28;20240;-92
2021/03/04 02:13:42;;;;;;;2.70;2.50;;;4.00;99.90;;;;;;5007423;28;20230;-92
2021/03/04 02:16:25;;;;;;;5.03;2.83;;;4.00;99.90;;;;;;4984413;28;20215;-92
2021/03/04 02:18:56;;;;;;;1.60;1.50;;;3.90;99.90;;;;;;4987022;28;20250;-91
2021/03/04 02:21:37;;;;;;;5.00;3.37;;;3.90;99.90;;;;;;5003859;28;20192;-92
2021/03/04 02:24:27;;;;;;;2.70;2.60;;;3.90;99.90;;;;;;5005031;28;20190;-92
2021/03/04 02:27:02;;;;;;;3.93;2.20;;;3.90;99.90;;;;;;4984672;28;20261;-92
2021/03/04 02:29:32;;;;;;;7.33;3.17;;;4.00;99.90;;;;;;4984801;28;21212;-91
2021/03/04 02:32:01;;;;;;;4.13;2.63;;;3.90;99.90;;;;;;4978925;28;20602;-91
2021/03/04 02:34:28;;;;;;;2.73;1.80;;;3.90;99.90;;;;;;4989514;28;20224;-91
2021/03/04 02:36:56;;;;;;;8.63;3.57;;;3.90;99.90;;;;;;4983660;28;20539;-89
2021/03/04 02:39:24;;;;;;;1.67;1.57;;;3.80;99.90;;;;;;4966899;28;20188;-91
2021/03/04 02:41:51;;;;;;;7.30;4.73;;;3.80;99.90;;;;;;4983795;28;20200;-91
2021/03/04 02:44:20;;;;;;;4.03;2.93;;;3.80;99.90;;;;;;4997281;28;20232;-90
2021/03/04 02:46:47;;;;;;;2.63;2.40;;;3.70;99.90;;;;;;4978058;28;20215;-93
2021/03/04 02:49:13;;;;;;;5.07;2.03;;;3.70;99.90;;;;;;4988474;28;20244;-91
2021/03/04 02:51:40;;;;;;;2.80;2.60;;;3.80;99.90;;;;;;4975329;28;20223;-92
2021/03/04 02:54:07;;;;;;;2.23;2.03;;;3.80;99.90;;;;;;4986293;28;20669;-92
2021/03/04 02:56:33;;;;;;;3.77;2.30;;;3.80;99.90;;;;;;5008254;28;20647;-90
2021/03/04 02:59:03;;;;;;;5.23;2.50;;;3.70;99.90;;;;;;4967776;28;20223;-92
2021/03/04 03:01:30;;;;;;;4.20;2.70;;;3.80;99.90;;;;;;4976121;28;20211;-93
2021/03/04 03:03:57;;;;;;;3.47;3.20;;;3.70;99.90;;;;;;4993247;28;20212;-91
2021/03/04 03:06:23;;;;;;;6.87;1.37;;;3.60;99.90;;;;;;4984043;28;20305;-92
2021/03/04 03:08:51;;;;;;;2.87;1.93;;;3.60;99.90;;;;;;4988949;28;20222;-91
2021/03/04 03:11:18;;;;;;;3.77;1.63;;;3.70;99.90;;;;;;4983494;28;20242;-91
2021/03/04 03:13:54;;;;;;;2.43;2.30;;;3.70;99.90;;;;;;5002173;28;20285;-92
2021/03/04 03:16:21;;;;;;;8.20;2.57;;;3.70;99.90;;;;;;5009455;28;20766;-91
2021/03/04 03:18:47;;;;;;;3.30;2.43;;;3.80;99.90;;;;;;4989629;28;20242;-92
2021/03/04 03:21:13;;;;;;;3.40;0.93;;;3.80;99.90;;;;;;4991449;28;20273;-91
2021/03/04 03:23:39;;;;;;;13.50;1.50;;;3.80;99.90;;;;;;4985019;28;20209;-92
2021/03/04 03:26:05;;;;;;;2.37;2.07;;;3.70;99.90;;;;;;4982773;28;20211;-91
2021/03/04 03:28:31;;;;;;;2.53;2.23;;;3.70;99.90;;;;;;4984499;28;20322;-90
2021/03/04 03:30:57;;;;;;;1.70;1.60;;;3.70;99.90;;;;;;4965881;28;20720;-92
2021/03/04 03:33:24;;;;;;;7.37;2.10;;;3.70;99.90;;;;;;4982257;28;20276;-92
2021/03/04 03:35:50;;;;;;;1.13;1.13;;;3.70;99.90;;;;;;5001899;28;20232;-91
2021/03/04 03:38:16;;;;;;;2.27;2.07;;;3.80;99.90;;;;;;5009899;28;20211;-90
2021/03/04 03:40:47;;;;;;;1.73;1.67;;;3.80;99.90;;;;;;5002815;28;20211;-91
2021/03/04 03:43:15;;;;;;;1.73;1.50;;;3.80;99.90;;;;;;5036446;28;20231;-91
2021/03/04 03:45:46;;;;;;;4.37;1.97;;;3.70;99.90;;;;;;5035692;28;20266;-91
2021/03/04 03:48:14;;;;;;;2.47;1.70;;;3.70;99.90;;;;;;5003146;28;20183;-91
2021/03/04 03:50:49;;;;;;;2.30;2.10;;;3.70;99.90;;;;;;5011624;28;20214;-92
2021/03/04 03:53:16;;;;;;;0.53;0.53;;;3.80;99.90;;;;;;5017924;28;20242;-91
2021/03/04 03:55:45;;;;;;;2.00;1.17;;;3.80;99.90;;;;;;4994206;28;20218;-91
2021/03/04 03:58:12;;;;;;;2.70;2.53;;;3.80;99.90;;;;;;5021056;28;20268;-92
2021/03/04 04:00:38;;;;;;;2.50;2.30;;;3.80;99.90;;;;;;5030187;28;20232;-91
2021/03/04 04:03:04;;;;;;;2.63;2.43;;;3.80;99.90;;;;;;5017758;28;20211;-92
2021/03/04 04:05:32;;;;;;;2.67;1.80;;;3.80;99.90;;;;;;5006813;28;20230;-92
2021/03/04 04:08:00;;;;;;;2.87;2.20;;;3.80;99.90;;;;;;5026135;28;20211;-92
2021/03/04 04:10:28;;;;;;;4.60;2.57;;;3.90;99.90;;;;;;5023763;28;21035;-91
2021/03/04 04:12:54;;;;;;;1.03;1.03;;;3.80;99.90;;;;;;4990912;28;20227;-91
2021/03/04 04:15:21;;;;;;;1.73;1.63;;;3.90;99.90;;;;;;5008891;28;20759;-91
2021/03/04 04:17:48;;;;;;;2.93;1.90;;;3.90;99.90;;;;;;5026147;28;20187;-92
2021/03/04 04:20:14;;;;;;;2.87;1.70;;;3.90;99.90;;;;;;5013081;28;20358;-92
2021/03/04 04:22:40;;;;;;;3.60;1.97;;;3.90;99.90;;;;;;4995467;28;20223;-92
2021/03/04 04:25:07;;;;;;;3.30;2.73;;;3.90;99.90;;;;;;4990605;28;20688;-91
2021/03/04 04:27:33;;;;;;;0.63;0.63;;;3.90;99.90;;;;;;4985685;28;20286;-92
2021/03/04 04:29:59;;;;;;;1.63;1.53;;;4.00;99.90;;;;;;4986151;28;20224;-92
2021/03/04 04:32:25;;;;;;;4.00;2.33;;;4.00;99.90;;;;;;5010991;28;21064;-91
2021/03/04 04:34:50;;;;;;;1.50;1.40;;;3.90;99.90;;;;;;5000052;28;20253;-92
2021/03/04 04:37:16;;;;;;;2.50;1.37;;;3.90;99.90;;;;;;5020818;28;20754;-91
2021/03/04 04:39:42;;;;;;;1.87;1.70;;;3.90;99.90;;;;;;5015171;28;20247;-91
2021/03/04 04:42:08;;;;;;;0.93;0.50;;;3.90;99.90;;;;;;4973409;28;20216;-91
2021/03/04 04:44:34;;;;;;;3.70;2.03;;;3.90;99.90;;;;;;4985107;28;20209;-91
2021/03/04 04:47:00;;;;;;;2.87;0.70;;;3.90;99.90;;;;;;4982863;28;20686;-92
2021/03/04 04:49:25;;;;;;;0.80;0.70;;;3.90;99.90;;;;;;5000295;28;20220;-92
2021/03/04 04:51:51;;;;;;;0.90;0.90;;;3.90;99.90;;;;;;4998827;28;20986;-91
2021/03/04 04:54:17;;;;;;;1.00;1.00;;;3.90;99.90;;;;;;4999414;28;20196;-91
2021/03/04 04:56:43;;;;;;;0.93;0.63;;;3.90;99.90;;;;;;4974270;28;20301;-91
2021/03/04 04:59:08;;;;;;;1.43;1.33;;;4.00;99.90;;;;;;5008173;28;20215;-92
2021/03/04 05:01:34;;;;;;;1.13;1.13;;;4.00;99.90;;;;;;4990888;28;20223;-93
2021/03/04 05:04:00;;;;;;;1.00;1.00;;;4.00;99.90;;;;;;4977951;28;20319;-93
2021/03/04 05:06:26;;;;;;;2.80;2.27;;;4.00;99.90;;;;;;4986223;28;20322;-91
2021/03/04 05:08:52;;;;;;;1.93;1.00;;;4.00;99.90;;;;;;5003714;28;20945;-92
2021/03/04 05:11:18;;;;;;;3.33;0.97;;;4.00;99.90;;;;;;4979717;28;20218;-90
2021/03/04 05:13:44;;;;;;;2.13;2.03;;;3.90;99.90;;;;;;4994506;28;20221;-91
2021/03/04 05:16:11;;;;;;;1.30;1.30;;;3.90;99.90;;;;;;4994053;28;20233;-91
2021/03/04 05:18:37;;;;;;;1.27;1.00;;;3.90;99.90;;;;;;4981502;28;20709;-94
2021/03/04 05:21:04;;;;;;;1.27;0.93;;;3.80;99.90;;;;;;5007867;28;20202;-87
2021/03/04 05:23:29;;;;;;;1.37;1.30;;;3.70;99.90;;;;;;4986316;28;20224;-89
2021/03/04 05:25:55;;;;;;;1.90;0.90;;;3.70;99.90;;;;;;4977663;28;20286;-89
2021/03/04 05:28:21;;;;;;;0.70;0.70;;;3.70;99.90;;;;;;5001413;28;20706;-89
2021/03/04 05:30:47;;;;;;;2.50;1.87;;;3.70;99.90;;;;;;4985446;28;20697;-89
2021/03/04 05:33:13;;;;;;;0.87;0.87;;;3.70;99.90;;;;;;4996842;28;20243;-88
2021/03/04 05:35:38;;;;;;;1.03;1.00;;;3.70;99.90;;;;;;5000068;28;20318;-89
2021/03/04 05:38:04;;;;;;;3.20;1.57;;;3.70;99.90;;;;;;5008441;28;20227;-89
2021/03/04 05:40:30;;;;;;;0.87;0.87;;;3.70;99.90;;;;;;5001821;28;20536;-90
2021/03/04 05:42:57;;;;;;;1.20;1.10;;;3.70;99.90;;;;;;5017389;28;20230;-89
2021/03/04 05:45:24;;;;;;;1.33;0.83;;;3.70;99.90;;;;;;4999965;28;20187;-89
2021/03/04 05:47:51;;;;;;;2.00;1.23;;;3.80;99.90;;;;;;4973961;28;20195;-88
2021/03/04 05:50:17;;;;;;;0.43;0.43;;;3.80;99.90;;;;;;4996106;28;20232;-90
2021/03/04 05:52:50;;;;;;;1.57;1.33;;;3.80;99.90;;;;;;5020831;28;20230;-89
2021/03/04 05:55:16;;;;;;;5.57;1.73;;;3.80;99.90;;;;;;5000962;28;20217;-89
2021/03/04 05:57:45;;;;;;;1.53;1.43;;;3.90;99.90;;;;;;4997629;28;20298;-87
2021/03/04 06:00:12;;;;;;;1.97;1.53;;;3.90;99.90;;;;;;4983725;28;20198;-88
2021/03/04 06:02:41;;;;;;;1.37;1.27;;;3.80;99.90;;;;;;5003631;28;20679;-88
2021/03/04 06:05:08;;;;;;;1.93;1.83;;;3.90;99.90;;;;;;4992119;28;20228;-89
2021/03/04 06:07:35;;;;;;;1.10;1.10;;;3.90;99.90;;;;;;4973817;28;20246;-89
2021/03/04 06:10:00;;;;;;;2.73;1.53;;;3.90;99.90;;;;;;4976489;28;20242;-88
2021/03/04 06:12:30;;;;;;;3.53;1.33;;;3.90;99.90;;;;;;5005921;28;20223;-87
2021/03/04 06:14:55;;;;;;;1.20;1.10;;;3.90;99.90;;;;;;4992183;28;20187;-90
2021/03/04 06:17:21;;;;;;;1.53;1.10;;;3.90;99.90;;;;;;4988606;28;20211;-89
2021/03/04 06:19:55;;;;;;;1.90;1.33;;;4.00;99.90;;;;;;4990537;28;20629;-90
2021/03/04 06:22:48;;;;;;;1.67;1.43;;;4.00;99.90;;;;;;5012431;28;20317;-91
2021/03/04 06:25:15;;;;;;;1.83;1.57;;;4.10;99.90;;;;;;4970646;28;21015;-90
2021/03/04 06:27:42;;;;;;;0.77;0.77;;;4.10;99.90;;;;;;4984800;28;20818;-88
2021/03/04 06:30:09;;;;;;;2.60;1.90;;;4.20;99.90;;;;;;4989941;28;20228;-90
2021/03/04 06:32:37;;;;;;;0.80;0.80;;;4.20;99.90;;;;;;4994289;28;20227;-91
2021/03/04 06:35:07;;;;;;;0.40;0.40;;;4.20;99.90;;;;;;4993884;28;20218;-89
2021/03/04 06:37:35;;;;;;;1.00;1.00;;;4.20;99.90;;;;;;5021130;28;20265;-90
2021/03/04 06:40:03;;;;;;;2.27;1.47;;;4.20;99.90;;;;;;4998337;28;20223;-91
2021/03/04 06:42:39;;;;;;;1.17;1.13;;;4.20;99.90;;;;;;4986793;28;20211;-89
2021/03/04 06:45:05;;;;;;;1.13;0.90;;;4.20;99.90;;;;;;4996258;28;20218;-90
2021/03/04 06:47:31;;;;;;;0.57;0.57;;;4.20;99.90;;;;;;5009996;28;20234;-91
2021/03/04 06:49:57;;;;;;;1.47;1.27;;;4.20;99.90;;;;;;5002214;28;20345;-90
2021/03/04 06:52:27;;;;;;;0.40;0.40;;;4.30;99.90;;;;;;4984378;28;21064;-89
2021/03/04 06:54:54;;;;;;;0.43;0.43;;;4.20;99.90;;;;;;5003051;28;20611;-87
2021/03/04 06:57:21;;;;;;;4.70;1.27;;;4.30;99.90;;;;;;4984601;28;20662;-92
2021/03/04 06:59:48;;;;;;;0.90;0.90;;;4.30;99.90;;;;;;4991216;28;20224;-91
2021/03/04 07:02:50;;;;;;;0.87;0.83;;;4.30;99.90;;;;;;4994125;28;20265;-91
2021/03/04 07:05:15;;;;;;;2.77;1.10;;;4.30;99.90;;;;;;4989354;28;20222;-90
2021/03/04 07:07:42;;;;;;;0.60;0.60;;;4.30;99.90;;;;;;4973093;28;20688;-93
2021/03/04 07:10:10;;;;;;;0.87;0.87;;;4.40;99.90;;;;;;5002099;28;20234;-91
2021/03/04 07:12:39;;;;;;;0.40;0.40;;;4.40;99.90;;;;;;4983038;28;20300;-91
2021/03/04 07:15:06;;;;;;;0.67;0.67;;;4.50;99.90;;;;;;5000194;28;20211;-91
2021/03/04 07:17:32;;;;;;;0.50;0.50;;;4.50;99.90;;;;;;4988882;28;20241;-93
2021/03/04 07:20:01;;;;;;;0.40;0.40;;;4.60;99.90;;;;;;4983250;28;20210;-90
2021/03/04 07:22:29;;;;;;;0.47;0.47;;;4.60;99.90;;;;;;5008438;28;20293;-93
2021/03/04 07:24:55;;;;;;;1.60;1.43;;;4.60;99.90;;;;;;5017679;28;20215;-93
2021/03/04 07:27:21;;;;;;;0.50;0.50;;;4.60;99.90;;;;;;5014828;28;20244;-92
2021/03/04 07:29:47;;;;;;;4.80;1.50;;;4.70;99.90;;;;;;4991704;28;21925;-91
2021/03/04 07:32:15;;;;;;;0.50;0.50;;;4.70;99.90;;;;;;4998623;28;20235;-91
2021/03/04 07:34:42;;;;;;;0.63;0.63;;;4.70;99.90;;;;;;5007052;28;20720;-91
2021/03/04 07:37:09;;;;;;;0.40;0.40;;;4.70;99.90;;;;;;5001793;28;20322;-91
2021/03/04 07:39:39;;;;;;;0.57;0.57;;;4.70;99.90;;;;;;5009488;28;20260;-91
2021/03/04 07:42:19;;;;;;;0.30;0.30;;;4.80;99.90;;;;;;5013838;28;20194;-90
2021/03/04 07:44:45;;;;;;;0.27;0.27;;;4.70;99.90;;;;;;4989220;28;20191;-92
2021/03/04 07:47:11;;;;;;;0.47;0.47;;;4.70;99.90;;;;;;5011195;28;20711;-90
2021/03/04 07:49:43;;;;;;;0.77;0.77;;;4.70;99.90;;;;;;4999401;28;20215;-90
2021/03/04 07:52:17;;;;;;;0.60;0.60;;;4.70;99.90;;;;;;5007405;28;20222;-90
2021/03/04 07:54:47;;;;;;;1.90;1.13;;;4.70;99.90;;;;;;4993391;28;20290;-91
2021/03/04 07:57:23;;;;;;;0.90;0.60;;;4.80;99.90;;;;;;4971667;28;20191;-91
2021/03/04 07:59:49;;;;;;;1.17;1.17;;;4.80;99.90;;;;;;5005936;28;20213;-91
2021/03/04 08:02:28;;;;;;;0.80;0.80;;;4.80;99.90;;;;;;4983557;28;21092;-90
2021/03/04 08:05:11;;;;;;;0.40;0.40;;;4.90;99.90;;;;;;4999225;28;20229;-91
2021/03/04 08:07:38;;;;;;;0.30;0.30;;;4.90;99.90;;;;;;4988867;28;21270;-92
2021/03/04 08:10:09;;;;;;;0.30;0.30;;;5.00;99.90;;;;;;5022440;28;20231;-92
2021/03/04 08:13:00;;;;;;;0.40;0.40;;;5.00;99.90;;;;;;5018474;28;20256;-91
2021/03/04 08:15:45;;;;;;;0.73;0.73;;;5.10;99.90;;;;;;5024891;28;20688;-92
2021/03/04 08:18:20;;;;;;;0.20;0.20;;;5.10;99.90;;;;;;5007856;28;20675;-91
2021/03/04 08:20:47;;;;;;;0.40;0.40;;;5.20;99.90;;;;;;5023525;28;20190;-92
2021/03/04 08:23:15;;;;;;;0.30;0.30;;;5.20;99.90;;;;;;5002235;28;20603;-92
2021/03/04 08:25:41;;;;;;;0.37;0.37;;;5.20;99.90;;;;;;4999417;28;20214;-93
2021/03/04 08:28:08;;;;;;;0.20;0.20;;;5.30;99.90;;;;;;5016904;28;20219;-91
2021/03/04 08:30:41;;;;;;;0.30;0.30;;;5.30;99.90;;;;;;5001575;28;20235;-92
2021/03/04 08:33:14;;;;;;;0.63;0.57;;;5.30;99.90;;;;;;5018148;28;20269;-90
2021/03/04 08:35:46;;;;;;;0.30;0.30;;;5.40;99.90;;;;;;5002133;28;20682;-92
2021/03/04 08:38:21;;;;;;;0.40;0.40;;;5.40;99.90;;;;;;5015986;28;20255;-91
2021/03/04 08:40:55;;;;;;;0.70;0.40;;;5.40;99.90;;;;;;5003410;28;20222;-91
2021/03/04 08:43:25;;;;;;;0.73;0.73;;;5.40;99.90;;;;;;5003898;28;20222;-93
2021/03/04 08:45:56;;;;;;;0.67;0.67;;;5.50;99.90;;;;;;5019601;28;20226;-92
2021/03/04 08:48:23;;;;;;;0.83;0.50;;;5.50;99.90;;;;;;5019901;28;20554;-92
2021/03/04 08:50:51;;;;;;;0.23;0.23;;;5.60;99.90;;;;;;5005780;28;20223;-91
2021/03/04 08:53:28;;;;;;;0.70;0.70;;;5.60;99.90;;;;;;5003598;28;20273;-93
2021/03/04 08:55:58;;;;;;;0.30;0.30;;;5.70;99.90;;;;;;5004569;28;20324;-90
2021/03/04 08:58:26;;;;;;;0.67;0.67;;;5.70;99.90;;;;;;5003862;28;20690;-92
2021/03/04 09:00:56;;;;;;;0.23;0.23;;;5.80;99.90;;;;;;5008116;28;20226;-91
2021/03/04 09:03:23;;;;;;;0.83;0.83;;;5.80;99.90;;;;;;5012127;28;20201;-91
2021/03/04 09:05:50;;;;;;;0.57;0.57;;;5.80;99.90;;;;;;4984672;28;20215;-93
2021/03/04 09:08:17;;;;;;;0.23;0.23;;;5.80;99.90;;;;;;4999224;28;20207;-91
2021/03/04 09:10:46;;;;;;;0.23;0.23;;;5.80;99.90;;;;;;4985460;28;20228;-91
2021/03/04 09:13:19;;;;;;;0.63;0.50;;;5.80;99.90;;;;;;5002888;28;20219;-92
2021/03/04 09:15:51;;;;;;;0.20;0.20;;;5.80;99.90;;;;;;5000478;28;20702;-94
2021/03/04 09:18:19;;;;;;;0.40;0.40;;;5.90;99.90;;;;;;4972602;28;20190;-91
2021/03/04 09:20:50;;;;;;;0.20;0.20;;;5.90;99.90;;;;;;5017414;28;20187;-93
2021/03/04 09:23:23;;;;;;;0.70;0.70;;;5.90;99.90;;;;;;5045489;23;20240;-94
2021/03/04 09:25:58;;;;;;;0.97;0.90;;;6.00;99.90;;;;;;4984713;28;20748;-89
2021/03/04 09:28:30;;;;;;;0.23;0.23;;;6.10;99.90;;;;;;4996152;28;20497;-94
2021/03/04 09:31:27;;;;;;;;;;;;;;;;;;;;;
2021/03/04 09:34:00;;;;;;;0.33;0.33;;;6.20;99.90;;;;;;5020511;28;20220;-91
2021/03/04 09:36:26;;;;;;;0.60;0.60;;;6.30;99.90;;;;;;5015154;28;20234;-93
2021/03/04 09:39:03;;;;;;;0.47;0.47;;;6.30;99.90;;;;;;5005334;28;20227;-95
2021/03/04 09:41:40;;;;;;;0.20;0.20;;;6.30;99.90;;;;;;4979212;28;20213;-91
2021/03/04 09:44:14;;;;;;;1.17;1.17;;;6.30;99.90;;;;;;4990251;28;20226;-91
2021/03/04 09:46:43;;;;;;;2.17;0.20;;;6.40;99.90;;;;;;5008015;28;20245;-91
2021/03/04 09:49:57;;;;;;;3.07;0.30;;;6.30;99.90;;;;;;4232282;22;20411;-90
2021/03/04 09:52:33;;;;;;;1.00;0.90;;;6.40;99.90;;;;;;5649077;23;20239;-93
2021/03/04 09:55:20;;;;;;;0.50;0.50;;;6.60;99.90;;;;;;5147644;23;20537;-93
2021/03/04 09:57:51;;;;;;;0.30;0.30;;;6.60;99.90;;;;;;5004776;23;20234;-89
2021/03/04 10:00:24;;;;;;;1.57;0.40;;;6.70;99.90;;;;;;4981588;28;20218;-93
2021/03/04 10:02:53;;;;;;;1.27;1.17;;;6.70;99.90;;;;;;4993018;28;20657;-92
2021/03/04 10:05:24;;;;;;;0.50;0.50;;;6.70;99.90;;;;;;4991457;28;20310;-90
2021/03/04 10:08:10;;;;;;;0.20;0.20;;;6.70;99.90;;;;;;5092079;23;20983;-95
2021/03/04 10:10:42;;;;;;;1.63;1.00;;;6.60;99.90;;;;;;5474010;22;20749;-94
2021/03/04 10:13:29;;;;;;;0.23;0.23;;;6.80;99.90;;;;;;5004646;28;20242;-91
2021/03/04 10:16:13;;;;;;;1.20;0.40;;;6.80;99.90;;;;;;5072203;23;20252;-93
2021/03/04 10:19:01;;;;;;;;;;;;;;;;;;;;;
2021/03/04 10:21:43;;;;;;;0.47;0.47;;;6.80;99.90;;;;;;4952050;28;20217;-95
2021/03/04 10:24:13;;;;;;;0.27;0.27;;;6.90;99.90;;;;;;4971944;28;20636;-94
2021/03/04 10:26:52;;;;;;;0.37;0.37;;;6.80;99.90;;;;;;4987675;28;20212;-93
2021/03/04 10:29:43;;;;;;;1.23;0.67;;;6.80;99.90;;;;;;4992924;28;20220;-93
2021/03/04 10:32:09;;;;;;;1.70;1.00;;;6.80;99.90;;;;;;4946317;28;20298;-92
2021/03/04 10:34:34;;;;;;;0.30;0.30;;;6.80;99.90;;;;;;4972099;28;20697;-94
2021/03/04 10:37:00;;;;;;;1.70;1.60;;;6.60;99.90;;;;;;4971098;28;20607;-95
2021/03/04 10:39:26;;;;;;;3.37;0.70;;;6.60;99.90;;;;;;4983349;28;20230;-92
2021/03/04 10:41:52;;;;;;;2.33;0.80;;;6.60;99.90;;;;;;4975452;28;20354;-93
2021/03/04 10:44:18;;;;;;;4.90;4.13;;;6.60;99.90;;;;;;4983069;28;20684;-90
2021/03/04 10:46:43;;;;;;;0.43;0.43;;;6.50;99.90;;;;;;4973328;28;20247;-94
2021/03/04 10:49:09;;;;;;;1.03;0.50;;;6.40;99.90;;;;;;4957879;28;20228;-92
2021/03/04 10:51:36;;;;;;;2.10;0.63;;;6.30;99.90;;;;;;4955879;28;20708;-94
2021/03/04 10:54:02;;;;;;;1.40;0.80;;;6.40;99.90;;;;;;4994753;28;20191;-94
2021/03/04 10:56:28;;;;;;;0.30;0.30;;;6.30;99.90;;;;;;4992956;28;20250;-94
2021/03/04 10:58:54;;;;;;;0.50;0.50;;;6.20;99.90;;;;;;4975197;28;20270;-93
2021/03/04 11:01:21;;;;;;;10.00;0.87;;;6.20;99.90;;;;;;4975269;28;20215;-92
2021/03/04 11:03:47;;;;;;;5.60;0.60;;;6.10;99.90;;;;;;4975150;28;20219;-92
2021/03/04 11:06:13;;;;;;;0.30;0.30;;;6.30;99.90;;;;;;4976285;28;20214;-92
2021/03/04 11:08:39;;;;;;;3.20;0.70;;;6.40;99.90;;;;;;4977023;28;20286;-92
2021/03/04 11:11:05;;;;;;;1.37;1.27;;;6.40;99.90;;;;;;4992862;28;20228;-92
2021/03/04 11:13:31;;;;;;;1.83;1.73;;;6.40;99.90;;;;;;4979068;28;20272;-92
2021/03/04 11:15:56;;;;;;;0.70;0.70;;;6.40;99.90;;;;;;4976173;28;20226;-90
2021/03/04 11:18:23;;;;;;;0.93;0.93;;;6.50;99.90;;;;;;4970364;28;20601;-92
2021/03/04 11:20:49;;;;;;;1.63;1.53;;;6.50;99.90;;;;;;4977990;28;20241;-93
2021/03/04 11:23:15;;;;;;;0.20;0.20;;;6.80;99.90;;;;;;4960071;28;20690;-92
2021/03/04 11:25:40;;;;;;;0.53;0.53;;;6.80;99.90;;;;;;4970369;28;20226;-93
2021/03/04 11:28:08;;;;;;;0.93;0.50;;;6.90;99.90;;;;;;4971054;28;20605;-91
2021/03/04 11:30:34;;;;;;;2.00;0.43;;;6.90;99.90;;;;;;4972255;28;20240;-92
2021/03/04 11:33:03;;;;;;;0.20;0.20;;;7.00;99.90;;;;;;4956299;28;20661;-92
2021/03/04 11:35:32;;;;;;;0.30;0.30;;;6.90;99.90;;;;;;4981018;28;20237;-91
2021/03/04 11:37:58;;;;;;;3.50;0.90;;;6.90;99.90;;;;;;4991594;28;20224;-92
2021/03/04 11:40:24;;;;;;;2.33;0.60;;;7.00;99.90;;;;;;4974145;28;20298;-91
2021/03/04 11:42:50;;;;;;;1.97;0.97;;;7.00;99.90;;;;;;4971492;28;20229;-91
2021/03/04 11:45:16;;;;;;;0.33;0.33;;;6.90;99.90;;;;;;4982311;28;20653;-92
2021/03/04 11:47:42;;;;;;;1.50;1.03;;;6.80;99.90;;;;;;4969302;28;20219;-96
2021/03/04 11:50:11;;;;;;;0.43;0.43;;;6.70;99.90;;;;;;4999862;28;20235;-95
2021/03/04 11:52:37;;;;;;;0.20;0.20;;;6.70;99.90;;;;;;4995313;28;20215;-94
2021/03/04 11:55:04;;;;;;;0.63;0.60;;;6.60;99.90;;;;;;4999390;28;20283;-96
2021/03/04 11:57:35;;;;;;;1.80;1.70;;;6.50;99.90;;;;;;4988585;28;20250;-95
2021/03/04 12:00:11;;;;;;;0.60;0.37;;;6.30;99.90;;;;;;4994086;28;20746;-96
2021/03/04 12:02:39;;;;;;;1.87;1.23;;;6.30;99.90;;;;;;4995729;28;20231;-95
2021/03/04 12:05:05;;;;;;;3.60;0.43;;;6.30;99.90;;;;;;4976377;28;20766;-93
2021/03/04 12:07:31;;;;;;;0.30;0.30;;;6.20;99.90;;;;;;4981574;28;20220;-92
2021/03/04 12:09:57;;;;;;;2.60;0.80;;;6.20;99.90;;;;;;4980148;28;21062;-92
2021/03/04 12:12:23;;;;;;;0.60;0.60;;;6.30;99.90;;;;;;4979281;28;20270;-91
2021/03/04 12:14:49;;;;;;;3.70;1.37;;;6.30;99.90;;;;;;4967067;28;20210;-91
2021/03/04 12:17:15;;;;;;;5.83;1.03;;;6.40;99.90;;;;;;4965994;28;20390;-92
2021/03/04 12:19:41;;;;;;;0.40;0.40;;;6.40;99.90;;;;;;4982207;28;21278;-91
2021/03/04 12:22:07;;;;;;;0.30;0.30;;;6.30;99.90;;;;;;4993812;28;20555;-92
2021/03/04 12:24:33;;;;;;;4.40;1.47;;;6.30;99.90;;;;;;4965171;28;20224;-91
2021/03/04 12:26:58;;;;;;;13.40;1.30;;;6.30;99.90;;;;;;4981203;28;20657;-92
2021/03/04 12:29:27;;;;;;;9.03;0.97;;;6.50;99.90;;;;;;4995168;28;20235;-91
2021/03/04 12:31:53;;;;;;;0.33;0.33;;;6.60;99.90;;;;;;4956919;28;20238;-91
2021/03/04 12:34:18;;;;;;;0.30;0.30;;;6.70;99.90;;;;;;4974991;28;20232;-90
2021/03/04 12:36:47;;;;;;;1.50;0.87;;;6.70;99.90;;;;;;4988616;28;20215;-91
2021/03/04 12:39:15;;;;;;;1.17;0.87;;;6.50;99.90;;;;;;4993401;28;20717;-92
2021/03/04 12:41:41;;;;;;;2.57;0.97;;;6.60;99.90;;;;;;4967533;28;20204;-92
2021/03/04 12:44:07;;;;;;;1.30;1.30;;;6.60;99.90;;;;;;4985326;28;20246;-90
2021/03/04 12:46:34;;;;;;;1.23;1.13;;;6.60;99.90;;;;;;4995260;28;21303;-95
2021/03/04 12:48:59;;;;;;;0.50;0.50;;;6.30;99.90;;;;;;4990432;28;20215;-95
2021/03/04 12:51:26;;;;;;;5.20;1.50;;;6.30;99.90;;;;;;4999283;28;20275;-95
2021/03/04 12:53:52;;;;;;;0.83;0.67;;;6.40;99.90;;;;;;4999028;28;20188;-92
2021/03/04 12:56:17;;;;;;;1.50;0.70;;;6.50;99.90;;;;;;4975221;28;20265;-92
2021/03/04 12:58:43;;;;;;;0.20;0.20;;;6.30;99.90;;;;;;4975549;28;20251;-90
2021/03/04 13:01:09;;;;;;;0.20;0.20;;;6.10;99.90;;;;;;4954069;28;20278;-90
2021/03/04 13:03:35;;;;;;;5.83;1.47;;;6.10;99.90;;;;;;4973049;28;20230;-90
2021/03/04 13:06:04;;;;;;;4.70;1.13;;;6.10;99.90;;;;;;4987414;28;20217;-89